Urbandale, Missouri
Current Conditions -  °F | °C
As of 4:35 PM on Monday 24 Nov 2014 (Local Time) from KVER Reporting Station
Overcast Overcast  
Wind Chill: 30°   Ceiling: 3600
Heat Index: 38°   Visibility: 10mi
Dew Point: 26°   Wind: 12mph
Humidity: 62%   Direction: 260°W
Pressure: 29.88"   Gusts: 16mph
Location:  39.4377°N, 92.3968°W
Report Text: KVER 242235Z AUTO 26010G14KT 10SM OVC036 03/M03 A2988 RMK AO2 T00311035
Loading
Personal Weather Stations






























Interactive Weather Map New forecast layout! Learn more

10-Day Weather Forecast

Advertisements
Track Severe Weather on mobile